createdAt,value
2019-06-26T00:01:23.823Z,20.70
2019-06-26T00:03:57.651Z,19.48
2019-06-26T00:06:31.424Z,19.75
2019-06-26T00:09:06.641Z,19.75
2019-06-26T00:11:40.522Z,19.32
2019-06-26T00:14:21.461Z,19.87
2019-06-26T00:16:55.291Z,20.35
2019-06-26T00:19:29.119Z,19.32
2019-06-26T00:22:03.001Z,20.92
2019-06-26T00:24:37.858Z,20.05
2019-06-26T00:27:11.699Z,20.23
2019-06-26T00:29:45.479Z,20.80
2019-06-26T00:32:19.183Z,19.87
2019-06-26T00:34:52.983Z,20.82
2019-06-26T00:37:26.595Z,20.32
2019-06-26T00:40:00.387Z,20.62
2019-06-26T00:42:34.040Z,20.48
2019-06-26T00:45:07.939Z,21.25
2019-06-26T00:47:41.742Z,21.15
2019-06-26T00:50:17.266Z,21.12
2019-06-26T00:52:50.993Z,20.85
2019-06-26T00:55:24.721Z,21.73
2019-06-26T00:57:58.437Z,21.25
2019-06-26T01:00:40.682Z,21.17
2019-06-26T01:03:14.411Z,20.90
2019-06-26T01:05:48.191Z,21.90
2019-06-26T01:08:22.235Z,21.17
2019-06-26T01:10:55.965Z,21.00
2019-06-26T01:13:29.685Z,21.40
2019-06-26T01:16:03.410Z,20.32
2019-06-26T01:18:37.142Z,20.80
2019-06-26T01:21:11.312Z,21.75
2019-06-26T01:23:45.075Z,21.75
2019-06-26T01:26:18.840Z,20.82
2019-06-26T01:28:52.880Z,21.97
2019-06-26T01:31:26.721Z,22.35
2019-06-26T01:34:00.453Z,21.07
2019-06-26T01:36:33.119Z,21.23
2019-06-26T01:39:07.602Z,20.45
2019-06-26T01:41:42.114Z,21.52
2019-06-26T01:44:15.897Z,21.55
2019-06-26T01:46:49.663Z,21.45
2019-06-26T01:49:23.405Z,20.80
2019-06-26T01:51:57.061Z,20.82
2019-06-26T01:54:30.779Z,21.95
2019-06-26T01:57:04.497Z,21.37
2019-06-26T01:59:38.331Z,21.90
2019-06-26T02:02:12.363Z,21.52
2019-06-26T02:04:46.083Z,21.75
2019-06-26T02:07:19.881Z,21.52
2019-06-26T02:09:53.613Z,20.52
2019-06-26T02:12:27.330Z,20.90
2019-06-26T02:15:03.219Z,21.07
2019-06-26T02:17:36.967Z,22.45
2019-06-26T02:20:10.701Z,21.07
2019-06-26T02:22:44.452Z,20.00
2019-06-26T02:25:18.406Z,20.57
2019-06-26T02:27:52.182Z,21.97
2019-06-26T02:30:25.925Z,21.07
2019-06-26T02:32:59.720Z,21.37
2019-06-26T02:35:33.606Z,21.25
2019-06-26T02:38:07.478Z,21.37
2019-06-26T02:40:42.914Z,21.15
2019-06-26T02:43:16.724Z,21.77
2019-06-26T02:45:50.363Z,20.57
2019-06-26T02:48:24.126Z,20.52
2019-06-26T02:50:58.091Z,20.82
2019-06-26T02:53:31.740Z,21.35
2019-06-26T02:56:05.387Z,21.40
2019-06-26T02:58:40.196Z,20.90
2019-06-26T03:01:15.556Z,21.68
2019-06-26T03:03:49.379Z,20.08
2019-06-26T03:06:23.115Z,20.20
2019-06-26T03:08:56.966Z,20.50
2019-06-26T03:11:30.821Z,21.33
2019-06-26T03:14:04.595Z,20.95
2019-06-26T03:16:38.313Z,20.82
2019-06-26T03:19:13.441Z,20.62
2019-06-26T03:21:47.178Z,20.55
2019-06-26T03:24:20.982Z,21.02
2019-06-26T03:26:54.881Z,21.33
2019-06-26T03:29:28.734Z,21.17
2019-06-26T03:32:02.461Z,21.23
2019-06-26T03:34:36.180Z,21.82
2019-06-26T03:37:09.902Z,21.35
2019-06-26T03:39:43.725Z,21.30
2019-06-26T03:42:17.502Z,20.60
2019-06-26T03:44:52.737Z,21.30
2019-06-26T03:47:26.506Z,21.25
2019-06-26T03:50:00.268Z,21.87
2019-06-26T03:52:34.060Z,21.00
2019-06-26T03:55:07.785Z,20.90
2019-06-26T03:57:41.519Z,20.75
2019-06-26T04:00:15.249Z,21.62
2019-06-26T04:02:49.035Z,21.55
2019-06-26T04:05:22.933Z,20.35
2019-06-26T04:07:56.736Z,21.07
2019-06-26T04:10:30.647Z,20.52
2019-06-26T04:13:05.414Z,21.05
2019-06-26T04:15:42.521Z,20.75
2019-06-26T04:18:16.583Z,20.95
2019-06-26T04:20:50.221Z,19.75
2019-06-26T04:23:23.994Z,19.50
2019-06-26T04:25:57.733Z,19.95
2019-06-26T04:28:32.027Z,19.55
2019-06-26T04:31:05.728Z,19.77
2019-06-26T04:33:39.594Z,19.62
2019-06-26T04:36:15.173Z,18.60
2019-06-26T04:38:48.826Z,19.55
2019-06-26T04:41:22.989Z,19.20
2019-06-26T04:43:56.721Z,19.55
2019-06-26T04:46:30.472Z,18.82
2019-06-26T04:49:04.164Z,19.05
2019-06-26T04:51:37.920Z,19.40
2019-06-26T04:54:11.656Z,17.98
2019-06-26T04:56:45.576Z,18.57
2019-06-26T04:59:19.368Z,18.25
2019-06-26T05:01:53.119Z,18.85
2019-06-26T05:04:27.044Z,18.17
2019-06-26T05:07:00.717Z,17.00
2019-06-26T05:09:34.434Z,17.85
2019-06-26T05:12:08.184Z,17.73
2019-06-26T05:14:41.926Z,18.25
2019-06-26T05:17:15.878Z,17.92
2019-06-26T05:19:49.603Z,17.85
2019-06-26T05:22:23.478Z,16.93
2019-06-26T05:24:57.125Z,17.35
2019-06-26T05:27:30.854Z,16.75
2019-06-26T05:30:05.557Z,15.98
2019-06-26T05:32:39.273Z,17.80
2019-06-26T05:35:12.986Z,16.95
2019-06-26T05:37:46.733Z,16.37
2019-06-26T05:40:20.445Z,16.75
2019-06-26T05:42:54.144Z,15.53
2019-06-26T05:45:27.853Z,16.93
2019-06-26T05:48:01.486Z,16.30
2019-06-26T05:50:35.331Z,16.32
2019-06-26T05:53:09.073Z,16.62
2019-06-26T05:55:43.129Z,16.77
2019-06-26T05:58:18.063Z,15.95
2019-06-26T06:00:52.008Z,16.05
2019-06-26T06:03:25.877Z,15.75
2019-06-26T06:05:59.632Z,16.65
2019-06-26T06:08:33.421Z,15.90
2019-06-26T06:11:07.229Z,16.55
2019-06-26T06:13:40.954Z,16.70
2019-06-26T06:16:14.698Z,15.55
2019-06-26T06:18:48.466Z,17.02
2019-06-26T06:21:22.704Z,16.37
2019-06-26T06:23:56.446Z,16.97
2019-06-26T06:26:30.124Z,17.77
2019-06-26T06:29:04.032Z,16.05
2019-06-26T06:31:37.973Z,16.48
2019-06-26T06:34:11.934Z,17.07
2019-06-26T06:36:45.907Z,16.45
2019-06-26T06:39:20.828Z,16.05
2019-06-26T06:41:55.111Z,15.98
2019-06-26T06:44:28.843Z,15.95
2019-06-26T06:47:04.581Z,16.60
2019-06-26T06:49:38.628Z,15.95
2019-06-26T06:52:16.610Z,14.85
2019-06-26T06:54:50.774Z,15.32
2019-06-26T06:57:25.072Z,14.95
2019-06-26T06:59:58.819Z,14.85
2019-06-26T07:02:33.297Z,15.53
2019-06-26T07:05:07.444Z,14.50
2019-06-26T07:07:41.364Z,14.25
2019-06-26T07:10:15.296Z,14.53
2019-06-26T07:12:49.212Z,13.80
2019-06-26T07:15:24.138Z,13.98
2019-06-26T07:17:58.290Z,13.62
2019-06-26T07:20:32.498Z,13.30
2019-06-26T07:23:06.651Z,13.25
2019-06-26T07:25:40.557Z,14.30
2019-06-26T07:28:14.688Z,14.25
2019-06-26T07:30:48.778Z,13.80
2019-06-26T07:33:23.253Z,13.80
2019-06-26T07:35:57.568Z,14.10
2019-06-26T07:38:31.696Z,13.58
2019-06-26T07:41:05.904Z,14.78
2019-06-26T07:43:39.740Z,15.65
2019-06-26T07:54:07.506Z,14.35
2019-06-26T07:56:41.237Z,14.35
2019-06-26T07:59:14.917Z,16.07
2019-06-26T08:01:48.817Z,15.95
2019-06-26T08:04:22.581Z,14.70
2019-06-26T08:06:56.408Z,15.10
2019-06-26T08:09:30.223Z,14.18
2019-06-26T08:12:04.020Z,14.55
2019-06-26T08:14:37.861Z,15.85
2019-06-26T08:17:12.114Z,14.83
2019-06-26T08:19:45.976Z,14.40
2019-06-26T08:22:20.235Z,14.68
2019-06-26T08:24:53.976Z,13.98
2019-06-26T08:27:27.745Z,14.03
2019-06-26T08:30:01.916Z,13.50
2019-06-26T08:32:35.755Z,13.60
2019-06-26T08:35:10.009Z,12.98
2019-06-26T08:37:43.700Z,13.00
2019-06-26T08:40:18.456Z,13.18
2019-06-26T08:42:52.184Z,12.10
2019-06-26T08:45:26.075Z,12.88
2019-06-26T08:48:16.389Z,12.73
2019-06-26T08:50:35.324Z,12.55
2019-06-26T08:53:09.127Z,12.73
2019-06-26T08:55:42.987Z,13.83
2019-06-26T08:58:16.885Z,13.28
2019-06-26T09:00:50.571Z,13.25
2019-06-26T09:03:24.287Z,12.73
2019-06-26T09:06:03.636Z,13.98
2019-06-26T09:08:44.953Z,12.25
2019-06-26T09:11:27.358Z,12.37
2019-06-26T09:14:09.214Z,13.22
2019-06-26T09:16:44.209Z,13.78
2019-06-26T09:19:18.684Z,14.68
2019-06-26T09:21:52.641Z,14.33
2019-06-26T09:24:26.585Z,14.20
2019-06-26T09:27:00.343Z,13.40
2019-06-26T09:29:36.181Z,13.32
2019-06-26T09:32:10.429Z,13.83
2019-06-26T09:34:44.149Z,13.45
2019-06-26T09:37:18.015Z,14.35
2019-06-26T09:39:52.934Z,13.28
2019-06-26T09:42:26.640Z,14.15
2019-06-26T09:45:00.911Z,13.30
2019-06-26T09:47:34.793Z,13.48
2019-06-26T09:50:08.556Z,14.47
2019-06-26T09:52:42.315Z,13.48
2019-06-26T09:55:16.964Z,13.80
2019-06-26T09:57:50.584Z,14.58
2019-06-26T10:00:24.615Z,13.32
2019-06-26T10:02:58.511Z,14.03
2019-06-26T10:05:32.375Z,14.15
2019-06-26T10:08:06.180Z,15.28
2019-06-26T10:10:40.113Z,14.43
2019-06-26T10:13:13.849Z,14.28
2019-06-26T10:15:47.733Z,14.60
2019-06-26T10:18:22.121Z,14.28
2019-06-26T10:20:55.845Z,14.70
2019-06-26T10:23:29.645Z,13.28
2019-06-26T10:26:03.502Z,13.28
2019-06-26T10:28:37.348Z,14.13
2019-06-26T10:31:11.213Z,14.40
2019-06-26T10:33:44.939Z,14.00
2019-06-26T10:36:20.206Z,13.45
2019-06-26T10:38:53.969Z,12.88
2019-06-26T10:41:27.735Z,12.88
2019-06-26T10:44:01.997Z,13.62
2019-06-26T10:46:37.146Z,13.40
2019-06-26T10:49:26.448Z,12.63
2019-06-26T10:51:49.274Z,11.15
2019-06-26T10:54:24.822Z,11.25
2019-06-26T10:56:59.967Z,11.75
2019-06-26T10:59:33.761Z,12.15
2019-06-26T11:02:07.619Z,11.40
2019-06-26T11:04:42.052Z,10.25
2019-06-26T11:07:15.959Z,10.10
2019-06-26T11:09:50.781Z,10.72
2019-06-26T11:12:24.668Z,9.73
2019-06-26T11:14:59.485Z,10.63
2019-06-26T11:17:33.620Z,10.28
2019-06-26T11:20:08.435Z,9.38
2019-06-26T11:22:42.487Z,9.53
2019-06-26T11:25:16.940Z,8.95
2019-06-26T11:27:50.684Z,9.58
2019-06-26T11:30:25.765Z,8.80
2019-06-26T11:32:59.498Z,8.45
2019-06-26T11:35:33.252Z,9.38
2019-06-26T11:38:07.277Z,8.00
2019-06-26T11:40:41.000Z,8.00
2019-06-26T11:43:14.587Z,8.15
2019-06-26T11:45:48.455Z,8.23
2019-06-26T11:48:22.235Z,8.40
2019-06-26T11:50:56.106Z,7.95
2019-06-26T11:53:29.943Z,8.68
2019-06-26T11:56:03.611Z,8.73
2019-06-26T11:58:37.493Z,8.50
2019-06-26T12:01:11.114Z,8.45
2019-06-26T12:03:45.108Z,8.53
2019-06-26T12:06:19.484Z,8.83
2019-06-26T12:08:53.294Z,8.28
2019-06-26T12:11:27.013Z,8.08
2019-06-26T12:14:00.789Z,7.33
2019-06-26T12:16:34.616Z,7.42
2019-06-26T12:19:08.318Z,7.30
2019-06-26T12:21:42.488Z,6.45
2019-06-26T12:24:16.341Z,7.25
2019-06-26T12:26:49.996Z,7.92
2019-06-26T12:29:24.588Z,7.25
2019-06-26T12:31:58.506Z,7.15
2019-06-26T12:34:32.297Z,8.20
2019-06-26T12:37:06.062Z,7.90
2019-06-26T12:39:39.724Z,8.73
2019-06-26T12:42:13.466Z,7.30
2019-06-26T12:44:47.315Z,7.37
2019-06-26T12:47:21.051Z,7.53
2019-06-26T12:49:54.726Z,7.33
2019-06-26T12:52:30.029Z,8.10
2019-06-26T12:55:04.066Z,8.63
2019-06-26T12:57:37.737Z,7.47
2019-06-26T13:00:11.775Z,7.92
2019-06-26T13:02:46.241Z,7.47
2019-06-26T13:05:19.961Z,7.40
2019-06-26T13:07:54.058Z,8.28
2019-06-26T13:10:27.773Z,8.20
2019-06-26T13:13:02.009Z,8.63
2019-06-26T13:15:36.041Z,7.80
2019-06-26T13:18:09.892Z,8.30
2019-06-26T13:20:52.829Z,8.53
2019-06-26T13:23:19.058Z,8.35
2019-06-26T13:25:52.885Z,8.03
2019-06-26T13:28:26.859Z,8.50
2019-06-26T13:31:00.562Z,7.92
2019-06-26T13:33:34.369Z,8.60
2019-06-26T13:36:08.147Z,8.33
2019-06-26T13:38:42.894Z,7.55
2019-06-26T13:41:16.635Z,7.00
2019-06-26T13:43:50.478Z,7.70
2019-06-26T13:46:24.488Z,7.17
2019-06-26T13:48:58.313Z,7.30
2019-06-26T13:51:32.473Z,6.28
2019-06-26T13:54:07.025Z,7.00
2019-06-26T13:56:40.668Z,6.83
2019-06-26T13:59:14.403Z,6.62
2019-06-26T14:01:48.172Z,7.03
2019-06-26T14:04:22.305Z,7.33
2019-06-26T14:06:55.968Z,6.87
2019-06-26T14:09:29.601Z,6.90
2019-06-26T14:12:03.472Z,7.17
2019-06-26T14:14:55.899Z,7.03
2019-06-26T14:17:13.013Z,7.53
2019-06-26T14:19:46.626Z,7.40
2019-06-26T14:22:20.677Z,7.55
2019-06-26T14:24:54.476Z,6.75
2019-06-26T14:27:28.282Z,7.37
2019-06-26T14:30:02.425Z,7.87
2019-06-26T14:32:36.222Z,7.17
2019-06-26T14:35:09.994Z,7.10
2019-06-26T14:37:43.812Z,7.65
2019-06-26T14:40:36.909Z,7.40
2019-06-26T14:43:10.754Z,7.75
2019-06-26T14:45:44.657Z,7.87
2019-06-26T14:48:18.518Z,7.53
2019-06-26T14:50:52.502Z,7.62
2019-06-26T14:53:26.402Z,7.47
2019-06-26T14:56:00.366Z,8.08
2019-06-26T14:58:36.261Z,7.92
2019-06-26T15:01:09.917Z,8.60
2019-06-26T15:03:43.877Z,8.00
2019-06-26T15:06:18.067Z,7.62
2019-06-26T15:08:52.324Z,7.67
2019-06-26T15:11:26.058Z,7.90
2019-06-26T15:13:59.852Z,7.97
2019-06-26T15:16:33.578Z,7.45
2019-06-26T15:19:07.476Z,7.70
2019-06-26T15:21:54.171Z,7.47
2019-06-26T15:24:17.164Z,7.90
2019-06-26T15:26:51.233Z,8.05
2019-06-26T15:29:25.000Z,8.00
2019-06-26T15:31:58.863Z,7.62
2019-06-26T15:34:32.871Z,8.25
2019-06-26T15:37:06.693Z,8.13
2019-06-26T15:39:40.545Z,7.97
2019-06-26T15:42:14.740Z,7.95
2019-06-26T15:44:49.864Z,8.10
2019-06-26T15:47:23.775Z,8.65
2019-06-26T15:49:57.486Z,8.70
2019-06-26T15:52:31.633Z,8.98
2019-06-26T15:55:07.178Z,9.30
2019-06-26T15:57:40.832Z,9.20
2019-06-26T16:00:14.514Z,8.98
2019-06-26T16:02:48.335Z,8.60
2019-06-26T16:05:22.315Z,8.93
2019-06-26T16:07:57.600Z,8.80
2019-06-26T16:10:34.425Z,8.95
2019-06-26T16:13:07.063Z,8.90
2019-06-26T16:15:40.880Z,8.60
2019-06-26T16:18:20.107Z,8.38
2019-06-26T16:20:53.826Z,8.85
2019-06-26T16:23:27.850Z,8.68
2019-06-26T16:26:02.953Z,8.78
2019-06-26T16:28:36.819Z,9.20
2019-06-26T16:31:10.619Z,9.00
2019-06-26T16:33:46.287Z,8.90
2019-06-26T16:36:20.012Z,8.50
2019-06-26T16:38:53.793Z,8.70
2019-06-26T16:41:27.529Z,8.83
2019-06-26T16:44:01.382Z,8.30
2019-06-26T16:46:35.191Z,9.48
2019-06-26T16:49:09.021Z,8.95
2019-06-26T16:51:42.822Z,8.93
2019-06-26T16:54:18.044Z,9.55
2019-06-26T16:56:52.153Z,9.73
2019-06-26T16:59:26.043Z,9.60
2019-06-26T17:01:59.843Z,9.10
2019-06-26T17:04:33.558Z,9.23
2019-06-26T17:07:07.345Z,9.20
2019-06-26T17:09:44.409Z,9.03
2019-06-26T17:12:18.292Z,9.20
2019-06-26T17:14:52.251Z,9.68
2019-06-26T17:17:26.163Z,9.43
2019-06-26T17:20:00.227Z,9.83
2019-06-26T17:22:34.039Z,9.53
2019-06-26T17:25:07.878Z,9.10
2019-06-26T17:27:41.652Z,10.00
2019-06-26T17:30:15.270Z,10.23
2019-06-26T17:32:48.985Z,9.93
2019-06-26T17:35:22.826Z,10.75
2019-06-26T17:37:56.595Z,9.95
2019-06-26T17:40:30.363Z,9.70
2019-06-26T17:43:12.257Z,10.28
2019-06-26T17:45:39.701Z,10.15
2019-06-26T17:48:13.587Z,10.38
2019-06-26T17:50:47.320Z,9.93
2019-06-26T17:53:22.278Z,9.55
2019-06-26T17:55:56.271Z,10.40
2019-06-26T17:58:29.960Z,10.10
2019-06-26T18:01:03.927Z,9.98
2019-06-26T18:03:37.694Z,10.23
2019-06-26T18:06:12.006Z,11.00
2019-06-26T18:08:45.795Z,10.50
2019-06-26T18:11:19.715Z,10.80
2019-06-26T18:13:53.500Z,10.90
2019-06-26T18:16:27.167Z,10.32
2019-06-26T18:19:00.917Z,10.80
2019-06-26T18:21:34.595Z,10.85
2019-06-26T18:24:08.420Z,10.90
2019-06-26T18:26:42.208Z,10.53
2019-06-26T18:29:15.965Z,11.18
2019-06-26T18:31:49.608Z,10.78
2019-06-26T18:34:23.423Z,10.10
2019-06-26T18:36:57.256Z,10.85
2019-06-26T18:39:30.995Z,10.25
2019-06-26T18:42:04.754Z,10.60
2019-06-26T18:44:40.363Z,11.00
2019-06-26T18:47:14.667Z,11.30
2019-06-26T18:49:48.471Z,11.73
2019-06-26T18:52:22.463Z,25.95
2019-06-26T18:55:03.744Z,12.78
2019-06-26T18:57:37.417Z,11.75
2019-06-26T19:00:12.300Z,12.58
2019-06-26T19:03:39.718Z,11.43
2019-06-26T19:06:30.845Z,11.22
2019-06-26T19:09:05.604Z,11.38
2019-06-26T19:11:39.485Z,11.65
2019-06-26T19:14:13.151Z,11.85
2019-06-26T19:16:49.157Z,11.15
2019-06-26T19:19:22.861Z,12.10
2019-06-26T19:22:50.717Z,11.22
2019-06-26T19:26:18.097Z,11.63
2019-06-26T19:29:45.984Z,11.43
2019-06-26T19:33:13.266Z,11.43
2019-06-26T19:35:49.862Z,11.60
2019-06-26T19:38:23.616Z,11.43
2019-06-26T19:40:57.326Z,11.65
2019-06-26T19:43:39.917Z,11.15
2019-06-26T19:46:13.741Z,11.90
2019-06-26T19:52:06.797Z,11.05
2019-06-26T19:54:40.731Z,11.28
2019-06-26T19:57:15.162Z,11.33
2019-06-26T19:59:49.159Z,11.48
2019-06-26T20:02:24.024Z,11.28
2019-06-26T20:04:58.016Z,10.50
2019-06-26T20:07:32.038Z,11.88
2019-06-26T20:10:06.037Z,11.18
2019-06-26T20:12:39.948Z,11.28
2019-06-26T20:15:14.066Z,11.57
2019-06-26T20:17:49.018Z,11.10
2019-06-26T20:20:23.322Z,11.63
2019-06-26T20:22:57.029Z,10.58
2019-06-26T20:25:31.138Z,10.70
2019-06-26T20:28:06.347Z,10.80
2019-06-26T20:30:40.455Z,11.12
2019-06-26T20:33:14.623Z,10.13
2019-06-26T20:36:10.131Z,10.75
2019-06-26T20:38:45.247Z,11.12
2019-06-26T20:41:19.164Z,10.45
2019-06-26T20:43:53.056Z,10.28
2019-06-26T20:47:20.537Z,10.30
2019-06-26T20:49:55.732Z,9.93
2019-06-26T20:52:29.727Z,10.45
2019-06-26T20:55:03.522Z,10.70
2019-06-26T20:57:37.351Z,10.65
2019-06-26T21:00:12.163Z,10.18
2019-06-26T21:03:40.094Z,10.88
2019-06-26T21:06:32.487Z,9.73
2019-06-26T21:09:06.856Z,10.18
2019-06-26T21:11:41.448Z,10.50
2019-06-26T21:14:15.256Z,10.20
2019-06-26T21:16:55.214Z,10.15
2019-06-26T21:19:29.285Z,10.18
2019-06-26T21:22:02.997Z,10.63
2019-06-26T21:24:36.797Z,9.98
2019-06-26T21:27:10.752Z,10.72
2019-06-26T21:29:44.472Z,10.53
2019-06-26T21:32:18.307Z,10.08
2019-06-26T21:34:51.933Z,10.70
2019-06-26T21:37:25.844Z,10.32
2019-06-26T21:39:59.558Z,10.58
2019-06-26T21:42:33.528Z,10.10
2019-06-26T21:45:07.331Z,10.23
2019-06-26T21:47:41.850Z,10.72
2019-06-26T21:50:15.756Z,10.93
2019-06-26T21:52:49.754Z,10.72
2019-06-26T21:55:34.154Z,10.43
2019-06-26T21:58:01.798Z,10.25
2019-06-26T22:00:36.864Z,10.75
2019-06-26T22:03:10.789Z,10.43
2019-06-26T22:05:44.503Z,10.75
2019-06-26T22:08:18.342Z,11.08
2019-06-26T22:10:52.364Z,10.70
2019-06-26T22:13:26.131Z,10.90
2019-06-26T22:15:59.980Z,11.50
2019-06-26T22:18:33.750Z,10.82
2019-06-26T22:21:07.478Z,10.58
2019-06-26T22:23:41.802Z,10.85
2019-06-26T22:26:15.552Z,10.50
2019-06-26T22:28:49.463Z,10.98
2019-06-26T22:31:23.173Z,11.68
2019-06-26T22:33:56.879Z,11.25
2019-06-26T22:36:30.754Z,10.95
2019-06-26T22:39:04.874Z,10.58
2019-06-26T22:41:38.572Z,10.95
2019-06-26T22:44:12.376Z,10.93
2019-06-26T22:46:46.145Z,11.38
2019-06-26T22:49:19.867Z,11.15
2019-06-26T22:51:53.707Z,10.43
2019-06-26T22:54:27.486Z,11.33
2019-06-26T22:57:01.199Z,11.30
2019-06-26T22:59:35.004Z,11.30
2019-06-26T23:02:08.735Z,10.88
2019-06-26T23:04:42.447Z,10.35
2019-06-26T23:07:16.324Z,11.08
2019-06-26T23:09:50.128Z,10.82
2019-06-26T23:12:23.842Z,10.53
2019-06-26T23:14:57.596Z,11.08
2019-06-26T23:17:31.462Z,10.58
2019-06-26T23:20:05.913Z,11.43
2019-06-26T23:22:39.653Z,10.90
2019-06-26T23:25:13.436Z,10.58
2019-06-26T23:27:47.382Z,11.08
2019-06-26T23:30:21.037Z,10.80
2019-06-26T23:32:54.998Z,11.03
2019-06-26T23:35:28.829Z,11.75
2019-06-26T23:38:02.925Z,11.03
2019-06-26T23:40:36.856Z,11.30
2019-06-26T23:43:10.649Z,10.58
2019-06-26T23:45:44.825Z,10.75
2019-06-26T23:48:18.616Z,11.30
2019-06-26T23:50:52.425Z,11.18
2019-06-26T23:53:26.155Z,11.53
2019-06-26T23:55:59.878Z,11.35
2019-06-26T23:58:33.622Z,11.12
